sensor_id;sensor_type;location;lat;lon;timestamp;temperature;humidity
55828;DHT22;41758;51.992;5.890;2023-01-19T00:01:15;6.80;70.40
55828;DHT22;41758;51.992;5.890;2023-01-19T00:03:40;6.90;70.30
55828;DHT22;41758;51.992;5.890;2023-01-19T00:06:07;6.90;70.10
55828;DHT22;41758;51.992;5.890;2023-01-19T00:08:33;6.90;70.40
55828;DHT22;41758;51.992;5.890;2023-01-19T00:11:00;7.00;70.30
55828;DHT22;41758;51.992;5.890;2023-01-19T00:13:26;7.00;70.30
55828;DHT22;41758;51.992;5.890;2023-01-19T00:15:52;6.90;70.30
55828;DHT22;41758;51.992;5.890;2023-01-19T00:18:18;7.00;70.40
55828;DHT22;41758;51.992;5.890;2023-01-19T00:20:47;7.00;70.50
55828;DHT22;41758;51.992;5.890;2023-01-19T00:23:14;7.00;70.40
55828;DHT22;41758;51.992;5.890;2023-01-19T00:25:41;7.00;70.40
55828;DHT22;41758;51.992;5.890;2023-01-19T00:28:12;7.10;70.50
55828;DHT22;41758;51.992;5.890;2023-01-19T00:30:39;7.10;70.60
55828;DHT22;41758;51.992;5.890;2023-01-19T00:33:05;7.10;70.60
55828;DHT22;41758;51.992;5.890;2023-01-19T00:35:30;7.10;70.50
55828;DHT22;41758;51.992;5.890;2023-01-19T00:38:00;7.10;70.40
55828;DHT22;41758;51.992;5.890;2023-01-19T00:40:26;7.10;70.40
55828;DHT22;41758;51.992;5.890;2023-01-19T00:42:51;7.20;70.40
55828;DHT22;41758;51.992;5.890;2023-01-19T00:45:19;7.20;70.30
55828;DHT22;41758;51.992;5.890;2023-01-19T00:47:47;7.10;70.20
55828;DHT22;41758;51.992;5.890;2023-01-19T00:50:15;7.10;70.10
55828;DHT22;41758;51.992;5.890;2023-01-19T00:52:50;7.10;70.20
55828;DHT22;41758;51.992;5.890;2023-01-19T00:55:16;7.10;70.50
55828;DHT22;41758;51.992;5.890;2023-01-19T00:57:42;7.10;70.60
55828;DHT22;41758;51.992;5.890;2023-01-19T01:00:16;7.10;70.40
55828;DHT22;41758;51.992;5.890;2023-01-19T01:02:44;7.10;70.40
55828;DHT22;41758;51.992;5.890;2023-01-19T01:05:10;7.10;70.40
55828;DHT22;41758;51.992;5.890;2023-01-19T01:07:36;7.10;70.50
55828;DHT22;41758;51.992;5.890;2023-01-19T01:12:36;7.10;70.50
55828;DHT22;41758;51.992;5.890;2023-01-19T01:15:02;7.10;70.40
55828;DHT22;41758;51.992;5.890;2023-01-19T01:17:28;7.10;70.40
55828;DHT22;41758;51.992;5.890;2023-01-19T01:19:54;7.10;70.30
55828;DHT22;41758;51.992;5.890;2023-01-19T01:22:19;7.10;70.30
55828;DHT22;41758;51.992;5.890;2023-01-19T01:24:45;7.10;70.30
55828;DHT22;41758;51.992;5.890;2023-01-19T01:27:11;7.10;70.30
55828;DHT22;41758;51.992;5.890;2023-01-19T01:29:37;7.10;70.40
55828;DHT22;41758;51.992;5.890;2023-01-19T01:32:06;7.10;70.30
55828;DHT22;41758;51.992;5.890;2023-01-19T01:34:32;7.10;70.40
55828;DHT22;41758;51.992;5.890;2023-01-19T01:36:58;7.10;70.40
55828;DHT22;41758;51.992;5.890;2023-01-19T01:39:24;7.10;70.50
55828;DHT22;41758;51.992;5.890;2023-01-19T01:41:50;7.10;70.60
55828;DHT22;41758;51.992;5.890;2023-01-19T01:44:54;7.10;70.70
55828;DHT22;41758;51.992;5.890;2023-01-19T01:47:22;7.10;70.50
55828;DHT22;41758;51.992;5.890;2023-01-19T01:49:55;7.10;70.40
55828;DHT22;41758;51.992;5.890;2023-01-19T01:52:23;7.00;70.50
55828;DHT22;41758;51.992;5.890;2023-01-19T01:54:51;7.00;70.40
55828;DHT22;41758;51.992;5.890;2023-01-19T01:57:17;7.00;70.50
55828;DHT22;41758;51.992;5.890;2023-01-19T01:59:45;7.00;70.50
55828;DHT22;41758;51.992;5.890;2023-01-19T02:02:20;7.00;70.50
55828;DHT22;41758;51.992;5.890;2023-01-19T02:05:33;7.00;70.20
55828;DHT22;41758;51.992;5.890;2023-01-19T02:08:01;6.90;70.10
55828;DHT22;41758;51.992;5.890;2023-01-19T02:10:46;6.80;70.10
55828;DHT22;41758;51.992;5.890;2023-01-19T02:13:33;6.70;69.80
55828;DHT22;41758;51.992;5.890;2023-01-19T02:16:02;6.60;70.10
55828;DHT22;41758;51.992;5.890;2023-01-19T02:18:31;6.60;70.10
55828;DHT22;41758;51.992;5.890;2023-01-19T02:21:07;6.60;70.20
55828;DHT22;41758;51.992;5.890;2023-01-19T02:26:04;6.50;70.60
55828;DHT22;41758;51.992;5.890;2023-01-19T02:28:30;6.50;70.50
55828;DHT22;41758;51.992;5.890;2023-01-19T02:30:56;6.40;70.20
55828;DHT22;41758;51.992;5.890;2023-01-19T02:33:22;6.40;69.90
55828;DHT22;41758;51.992;5.890;2023-01-19T02:35:50;6.30;69.90
55828;DHT22;41758;51.992;5.890;2023-01-19T02:38:18;6.20;69.90
55828;DHT22;41758;51.992;5.890;2023-01-19T02:40:45;6.10;69.50
55828;DHT22;41758;51.992;5.890;2023-01-19T02:43:12;6.00;69.90
55828;DHT22;41758;51.992;5.890;2023-01-19T02:45:42;6.00;70.20
55828;DHT22;41758;51.992;5.890;2023-01-19T02:48:08;6.00;70.60
55828;DHT22;41758;51.992;5.890;2023-01-19T02:50:43;6.00;70.60
55828;DHT22;41758;51.992;5.890;2023-01-19T02:53:22;6.00;70.60
55828;DHT22;41758;51.992;5.890;2023-01-19T02:55:56;6.00;70.50
55828;DHT22;41758;51.992;5.890;2023-01-19T02:58:36;5.90;71.00
55828;DHT22;41758;51.992;5.890;2023-01-19T03:03:53;5.90;71.20
55828;DHT22;41758;51.992;5.890;2023-01-19T03:09:28;6.00;71.30
55828;DHT22;41758;51.992;5.890;2023-01-19T03:12:39;6.00;71.40
55828;DHT22;41758;51.992;5.890;2023-01-19T03:15:12;6.00;71.30
55828;DHT22;41758;51.992;5.890;2023-01-19T03:17:44;6.00;71.50
55828;DHT22;41758;51.992;5.890;2023-01-19T03:20:15;6.00;71.70
55828;DHT22;41758;51.992;5.890;2023-01-19T03:22:59;6.10;71.50
55828;DHT22;41758;51.992;5.890;2023-01-19T03:25:27;6.00;71.00
55828;DHT22;41758;51.992;5.890;2023-01-19T03:27:56;6.00;71.10
55828;DHT22;41758;51.992;5.890;2023-01-19T03:30:28;6.00;71.40
55828;DHT22;41758;51.992;5.890;2023-01-19T03:33:23;6.00;71.50
55828;DHT22;41758;51.992;5.890;2023-01-19T03:35:55;6.00;71.20
55828;DHT22;41758;51.992;5.890;2023-01-19T03:38:31;6.00;70.90
55828;DHT22;41758;51.992;5.890;2023-01-19T03:41:00;5.90;70.90
55828;DHT22;41758;51.992;5.890;2023-01-19T03:43:30;5.90;70.90
55828;DHT22;41758;51.992;5.890;2023-01-19T03:45:56;5.90;71.10
55828;DHT22;41758;51.992;5.890;2023-01-19T03:48:22;5.90;71.30
55828;DHT22;41758;51.992;5.890;2023-01-19T03:50:49;6.00;71.40
55828;DHT22;41758;51.992;5.890;2023-01-19T03:53:16;6.00;71.50
55828;DHT22;41758;51.992;5.890;2023-01-19T03:55:45;6.10;71.80
55828;DHT22;41758;51.992;5.890;2023-01-19T03:58:14;6.10;71.80
55828;DHT22;41758;51.992;5.890;2023-01-19T04:01:00;6.20;71.70
55828;DHT22;41758;51.992;5.890;2023-01-19T04:03:25;6.20;71.80
55828;DHT22;41758;51.992;5.890;2023-01-19T04:05:51;6.20;71.90
55828;DHT22;41758;51.992;5.890;2023-01-19T04:08:17;6.30;72.00
55828;DHT22;41758;51.992;5.890;2023-01-19T04:10:43;6.30;71.90
55828;DHT22;41758;51.992;5.890;2023-01-19T04:13:09;6.40;71.80
55828;DHT22;41758;51.992;5.890;2023-01-19T04:15:35;6.40;71.70
55828;DHT22;41758;51.992;5.890;2023-01-19T04:18:01;6.40;71.60
55828;DHT22;41758;51.992;5.890;2023-01-19T04:20:27;6.40;71.60
55828;DHT22;41758;51.992;5.890;2023-01-19T04:22:54;6.50;71.70
55828;DHT22;41758;51.992;5.890;2023-01-19T04:25:20;6.50;71.70
55828;DHT22;41758;51.992;5.890;2023-01-19T04:27:51;6.50;71.50
55828;DHT22;41758;51.992;5.890;2023-01-19T04:30:17;6.60;71.30
55828;DHT22;41758;51.992;5.890;2023-01-19T04:32:43;6.60;71.40
55828;DHT22;41758;51.992;5.890;2023-01-19T04:35:09;6.60;71.40
55828;DHT22;41758;51.992;5.890;2023-01-19T04:37:38;6.50;71.30
55828;DHT22;41758;51.992;5.890;2023-01-19T04:40:05;6.50;71.30
55828;DHT22;41758;51.992;5.890;2023-01-19T04:42:34;6.50;71.10
55828;DHT22;41758;51.992;5.890;2023-01-19T04:45:02;6.50;71.10
55828;DHT22;41758;51.992;5.890;2023-01-19T04:47:30;6.50;71.00
55828;DHT22;41758;51.992;5.890;2023-01-19T04:49:56;6.50;71.10
55828;DHT22;41758;51.992;5.890;2023-01-19T04:52:22;6.50;71.30
55828;DHT22;41758;51.992;5.890;2023-01-19T04:54:47;6.50;71.30
55828;DHT22;41758;51.992;5.890;2023-01-19T04:57:13;6.50;71.30
55828;DHT22;41758;51.992;5.890;2023-01-19T04:59:39;6.50;71.30
55828;DHT22;41758;51.992;5.890;2023-01-19T05:02:05;6.50;71.20
55828;DHT22;41758;51.992;5.890;2023-01-19T05:04:30;6.50;71.30
55828;DHT22;41758;51.992;5.890;2023-01-19T05:06:56;6.50;71.30
55828;DHT22;41758;51.992;5.890;2023-01-19T05:09:22;6.50;71.30
55828;DHT22;41758;51.992;5.890;2023-01-19T05:11:48;6.50;71.30
55828;DHT22;41758;51.992;5.890;2023-01-19T05:14:14;6.50;71.40
55828;DHT22;41758;51.992;5.890;2023-01-19T05:16:39;6.50;71.50
55828;DHT22;41758;51.992;5.890;2023-01-19T05:19:05;6.50;71.50
55828;DHT22;41758;51.992;5.890;2023-01-19T05:21:31;6.60;71.40
55828;DHT22;41758;51.992;5.890;2023-01-19T05:23:59;6.50;71.50
55828;DHT22;41758;51.992;5.890;2023-01-19T05:26:25;6.60;71.50
55828;DHT22;41758;51.992;5.890;2023-01-19T05:28:50;6.50;71.40
55828;DHT22;41758;51.992;5.890;2023-01-19T05:31:16;6.50;71.40
55828;DHT22;41758;51.992;5.890;2023-01-19T05:33:42;6.60;71.40
55828;DHT22;41758;51.992;5.890;2023-01-19T05:36:08;6.50;71.30
55828;DHT22;41758;51.992;5.890;2023-01-19T05:38:33;6.50;71.40
55828;DHT22;41758;51.992;5.890;2023-01-19T05:40:59;6.50;71.40
55828;DHT22;41758;51.992;5.890;2023-01-19T05:43:25;6.60;71.60
55828;DHT22;41758;51.992;5.890;2023-01-19T05:45:51;6.60;71.40
55828;DHT22;41758;51.992;5.890;2023-01-19T05:48:16;6.60;71.50
55828;DHT22;41758;51.992;5.890;2023-01-19T05:50:42;6.60;71.50
55828;DHT22;41758;51.992;5.890;2023-01-19T05:53:08;6.60;71.50
55828;DHT22;41758;51.992;5.890;2023-01-19T05:55:34;6.60;71.50
55828;DHT22;41758;51.992;5.890;2023-01-19T05:57:59;6.60;71.50
55828;DHT22;41758;51.992;5.890;2023-01-19T06:00:26;6.70;71.50
55828;DHT22;41758;51.992;5.890;2023-01-19T06:02:52;6.60;71.50
55828;DHT22;41758;51.992;5.890;2023-01-19T06:05:18;6.60;71.50
55828;DHT22;41758;51.992;5.890;2023-01-19T06:07:44;6.70;71.40
55828;DHT22;41758;51.992;5.890;2023-01-19T06:10:10;6.70;71.50
55828;DHT22;41758;51.992;5.890;2023-01-19T06:12:37;6.70;71.60
55828;DHT22;41758;51.992;5.890;2023-01-19T06:15:04;6.70;71.60
55828;DHT22;41758;51.992;5.890;2023-01-19T06:17:35;6.70;71.60
55828;DHT22;41758;51.992;5.890;2023-01-19T06:20:16;6.70;71.60
55828;DHT22;41758;51.992;5.890;2023-01-19T06:22:42;6.70;71.50
55828;DHT22;41758;51.992;5.890;2023-01-19T06:25:09;6.70;71.50
55828;DHT22;41758;51.992;5.890;2023-01-19T06:27:34;6.70;71.50
55828;DHT22;41758;51.992;5.890;2023-01-19T06:30:01;6.70;71.50
55828;DHT22;41758;51.992;5.890;2023-01-19T06:32:27;6.80;71.50
55828;DHT22;41758;51.992;5.890;2023-01-19T06:34:53;6.80;71.60
55828;DHT22;41758;51.992;5.890;2023-01-19T06:37:18;6.80;71.50
55828;DHT22;41758;51.992;5.890;2023-01-19T06:40:05;6.80;71.70
55828;DHT22;41758;51.992;5.890;2023-01-19T06:42:31;6.80;71.60
55828;DHT22;41758;51.992;5.890;2023-01-19T06:44:56;6.90;71.50
55828;DHT22;41758;51.992;5.890;2023-01-19T06:47:25;6.90;71.50
55828;DHT22;41758;51.992;5.890;2023-01-19T06:49:54;6.90;71.40
55828;DHT22;41758;51.992;5.890;2023-01-19T06:52:23;6.90;71.30
55828;DHT22;41758;51.992;5.890;2023-01-19T06:54:58;6.90;71.20
55828;DHT22;41758;51.992;5.890;2023-01-19T06:57:23;6.90;71.20
55828;DHT22;41758;51.992;5.890;2023-01-19T07:00:00;6.90;71.20
55828;DHT22;41758;51.992;5.890;2023-01-19T07:02:37;6.90;71.30
55828;DHT22;41758;51.992;5.890;2023-01-19T07:05:05;6.90;71.50
55828;DHT22;41758;51.992;5.890;2023-01-19T07:07:31;6.90;71.40
55828;DHT22;41758;51.992;5.890;2023-01-19T07:09:57;6.90;71.40
55828;DHT22;41758;51.992;5.890;2023-01-19T07:12:23;6.90;71.40
55828;DHT22;41758;51.992;5.890;2023-01-19T07:14:48;6.90;71.50
55828;DHT22;41758;51.992;5.890;2023-01-19T07:17:14;6.90;71.40
55828;DHT22;41758;51.992;5.890;2023-01-19T07:19:40;7.00;71.50
55828;DHT22;41758;51.992;5.890;2023-01-19T07:22:06;7.00;71.30
55828;DHT22;41758;51.992;5.890;2023-01-19T07:24:35;7.00;71.40
55828;DHT22;41758;51.992;5.890;2023-01-19T07:27:02;7.00;71.40
55828;DHT22;41758;51.992;5.890;2023-01-19T07:29:29;7.00;71.30
55828;DHT22;41758;51.992;5.890;2023-01-19T07:31:55;7.00;71.40
55828;DHT22;41758;51.992;5.890;2023-01-19T07:34:21;7.00;71.50
55828;DHT22;41758;51.992;5.890;2023-01-19T07:36:46;7.10;71.50
55828;DHT22;41758;51.992;5.890;2023-01-19T07:39:15;7.10;71.50
55828;DHT22;41758;51.992;5.890;2023-01-19T07:41:41;7.10;71.60
55828;DHT22;41758;51.992;5.890;2023-01-19T07:44:07;7.10;71.40
55828;DHT22;41758;51.992;5.890;2023-01-19T07:46:33;7.10;71.30
55828;DHT22;41758;51.992;5.890;2023-01-19T07:49:01;7.10;71.30
55828;DHT22;41758;51.992;5.890;2023-01-19T07:51:29;7.10;71.20
55828;DHT22;41758;51.992;5.890;2023-01-19T07:53:55;7.10;71.20
55828;DHT22;41758;51.992;5.890;2023-01-19T07:56:21;7.10;71.20
55828;DHT22;41758;51.992;5.890;2023-01-19T07:58:48;7.10;71.30
55828;DHT22;41758;51.992;5.890;2023-01-19T08:01:16;7.00;71.20
55828;DHT22;41758;51.992;5.890;2023-01-19T08:03:42;7.00;71.10
55828;DHT22;41758;51.992;5.890;2023-01-19T08:06:23;7.00;71.20
55828;DHT22;41758;51.992;5.890;2023-01-19T08:08:49;7.00;71.20
55828;DHT22;41758;51.992;5.890;2023-01-19T08:11:15;7.00;71.30
55828;DHT22;41758;51.992;5.890;2023-01-19T08:13:41;7.00;71.30
55828;DHT22;41758;51.992;5.890;2023-01-19T08:16:08;7.00;71.40
55828;DHT22;41758;51.992;5.890;2023-01-19T08:18:34;7.00;71.30
55828;DHT22;41758;51.992;5.890;2023-01-19T08:21:05;7.00;71.40
55828;DHT22;41758;51.992;5.890;2023-01-19T08:23:31;7.00;71.30
55828;DHT22;41758;51.992;5.890;2023-01-19T08:25:57;7.00;71.40
55828;DHT22;41758;51.992;5.890;2023-01-19T08:28:28;7.00;71.50
55828;DHT22;41758;51.992;5.890;2023-01-19T08:31:03;7.00;71.40
55828;DHT22;41758;51.992;5.890;2023-01-19T08:33:42;7.00;71.40
55828;DHT22;41758;51.992;5.890;2023-01-19T08:43:37;6.60;70.40
55828;DHT22;41758;51.992;5.890;2023-01-19T08:46:23;6.50;70.70
55828;DHT22;41758;51.992;5.890;2023-01-19T08:49:34;6.40;71.10
55828;DHT22;41758;51.992;5.890;2023-01-19T08:52:19;6.50;71.50
55828;DHT22;41758;51.992;5.890;2023-01-19T08:54:45;6.50;71.80
55828;DHT22;41758;51.992;5.890;2023-01-19T08:57:13;6.60;71.90
55828;DHT22;41758;51.992;5.890;2023-01-19T08:59:40;6.60;71.90
55828;DHT22;41758;51.992;5.890;2023-01-19T09:02:16;6.60;72.00
55828;DHT22;41758;51.992;5.890;2023-01-19T09:05:14;6.60;72.00
55828;DHT22;41758;51.992;5.890;2023-01-19T09:07:40;6.70;72.00
55828;DHT22;41758;51.992;5.890;2023-01-19T09:10:13;6.70;72.00
55828;DHT22;41758;51.992;5.890;2023-01-19T09:12:41;6.70;72.10
55828;DHT22;41758;51.992;5.890;2023-01-19T09:15:32;6.70;72.20
55828;DHT22;41758;51.992;5.890;2023-01-19T09:18:06;6.80;72.10
55828;DHT22;41758;51.992;5.890;2023-01-19T09:20:35;6.80;72.20
55828;DHT22;41758;51.992;5.890;2023-01-19T09:23:14;6.80;72.30
55828;DHT22;41758;51.992;5.890;2023-01-19T09:25:42;6.90;72.20
55828;DHT22;41758;51.992;5.890;2023-01-19T09:28:10;6.90;72.20
55828;DHT22;41758;51.992;5.890;2023-01-19T09:30:38;6.90;72.40
55828;DHT22;41758;51.992;5.890;2023-01-19T09:33:08;6.90;72.40
55828;DHT22;41758;51.992;5.890;2023-01-19T09:35:40;7.00;72.30
55828;DHT22;41758;51.992;5.890;2023-01-19T09:38:10;7.00;72.30
55828;DHT22;41758;51.992;5.890;2023-01-19T09:40:49;7.00;72.30
55828;DHT22;41758;51.992;5.890;2023-01-19T09:45:53;7.10;72.10
55828;DHT22;41758;51.992;5.890;2023-01-19T09:48:49;7.10;72.10
55828;DHT22;41758;51.992;5.890;2023-01-19T09:51:23;7.10;72.10
55828;DHT22;41758;51.992;5.890;2023-01-19T09:56:35;7.20;72.20
55828;DHT22;41758;51.992;5.890;2023-01-19T10:02:58;7.30;72.50
55828;DHT22;41758;51.992;5.890;2023-01-19T10:05:02;7.30;72.50
55828;DHT22;41758;51.992;5.890;2023-01-19T10:07:32;7.40;72.50
55828;DHT22;41758;51.992;5.890;2023-01-19T10:10:27;7.60;72.60
55828;DHT22;41758;51.992;5.890;2023-01-19T10:18:46;7.90;72.30
55828;DHT22;41758;51.992;5.890;2023-01-19T10:26:52;8.10;71.90
55828;DHT22;41758;51.992;5.890;2023-01-19T10:29:40;8.20;72.00
55828;DHT22;41758;51.992;5.890;2023-01-19T10:32:41;8.40;72.20
55828;DHT22;41758;51.992;5.890;2023-01-19T10:35:15;8.60;72.40
55828;DHT22;41758;51.992;5.890;2023-01-19T10:41:50;9.00;71.80
55828;DHT22;41758;51.992;5.890;2023-01-19T10:44:34;9.10;71.50
55828;DHT22;41758;51.992;5.890;2023-01-19T10:47:00;9.10;71.20
55828;DHT22;41758;51.992;5.890;2023-01-19T10:49:28;9.20;71.00
55828;DHT22;41758;51.992;5.890;2023-01-19T10:51:57;9.30;70.90
55828;DHT22;41758;51.992;5.890;2023-01-19T10:54:25;9.30;70.60
55828;DHT22;41758;51.992;5.890;2023-01-19T10:57:03;9.30;70.50
55828;DHT22;41758;51.992;5.890;2023-01-19T10:59:48;9.30;70.00
55828;DHT22;41758;51.992;5.890;2023-01-19T11:02:22;9.20;69.70
55828;DHT22;41758;51.992;5.890;2023-01-19T11:04:53;9.20;69.50
55828;DHT22;41758;51.992;5.890;2023-01-19T11:07:27;9.10;69.70
55828;DHT22;41758;51.992;5.890;2023-01-19T11:13:01;9.00;70.10
55828;DHT22;41758;51.992;5.890;2023-01-19T11:15:43;9.00;70.50
55828;DHT22;41758;51.992;5.890;2023-01-19T11:18:29;9.00;70.20
55828;DHT22;41758;51.992;5.890;2023-01-19T11:21:01;9.10;70.00
55828;DHT22;41758;51.992;5.890;2023-01-19T11:25:57;9.10;69.90
55828;DHT22;41758;51.992;5.890;2023-01-19T11:28:33;9.10;69.80
55828;DHT22;41758;51.992;5.890;2023-01-19T11:33:57;9.20;69.70
55828;DHT22;41758;51.992;5.890;2023-01-19T11:36:25;9.20;69.80
55828;DHT22;41758;51.992;5.890;2023-01-19T11:38:55;9.30;69.90
55828;DHT22;41758;51.992;5.890;2023-01-19T11:41:33;9.30;70.00
55828;DHT22;41758;51.992;5.890;2023-01-19T11:46:45;9.70;69.60
55828;DHT22;41758;51.992;5.890;2023-01-19T11:49:20;9.90;69.50
55828;DHT22;41758;51.992;5.890;2023-01-19T11:54:25;10.20;68.70
55828;DHT22;41758;51.992;5.890;2023-01-19T11:57:02;10.30;68.70
55828;DHT22;41758;51.992;5.890;2023-01-19T11:59:36;10.50;68.70
55828;DHT22;41758;51.992;5.890;2023-01-19T12:02:09;10.80;68.50
55828;DHT22;41758;51.992;5.890;2023-01-19T12:04:38;11.00;68.20
55828;DHT22;41758;51.992;5.890;2023-01-19T12:07:11;11.30;67.00
55828;DHT22;41758;51.992;5.890;2023-01-19T12:09:45;11.60;67.30
55828;DHT22;41758;51.992;5.890;2023-01-19T12:12:30;11.80;65.90
55828;DHT22;41758;51.992;5.890;2023-01-19T12:15:25;11.90;65.40
55828;DHT22;41758;51.992;5.890;2023-01-19T12:18:00;12.10;64.90
55828;DHT22;41758;51.992;5.890;2023-01-19T12:20:39;12.30;64.70
55828;DHT22;41758;51.992;5.890;2023-01-19T12:28:44;13.10;63.30
55828;DHT22;41758;51.992;5.890;2023-01-19T12:35:03;13.60;61.10
55828;DHT22;41758;51.992;5.890;2023-01-19T12:37:38;13.60;60.80
55828;DHT22;41758;51.992;5.890;2023-01-19T12:43:03;13.30;60.80
55828;DHT22;41758;51.992;5.890;2023-01-19T12:45:35;13.00;61.10
55828;DHT22;41758;51.992;5.890;2023-01-19T12:48:02;12.70;61.00
55828;DHT22;41758;51.992;5.890;2023-01-19T12:50:34;12.40;61.90
55828;DHT22;41758;51.992;5.890;2023-01-19T12:53:15;12.30;62.20
55828;DHT22;41758;51.992;5.890;2023-01-19T12:55:43;11.90;62.60
55828;DHT22;41758;51.992;5.890;2023-01-19T12:58:22;11.80;63.30
55828;DHT22;41758;51.992;5.890;2023-01-19T13:01:16;11.50;63.40
55828;DHT22;41758;51.992;5.890;2023-01-19T13:04:28;11.30;63.40
55828;DHT22;41758;51.992;5.890;2023-01-19T13:09:34;10.90;64.20
55828;DHT22;41758;51.992;5.890;2023-01-19T13:12:31;10.70;64.30
55828;DHT22;41758;51.992;5.890;2023-01-19T13:15:26;10.60;65.00
55828;DHT22;41758;51.992;5.890;2023-01-19T13:17:53;10.40;64.90
55828;DHT22;41758;51.992;5.890;2023-01-19T13:20:23;10.30;65.10
55828;DHT22;41758;51.992;5.890;2023-01-19T13:23:27;10.20;65.70
55828;DHT22;41758;51.992;5.890;2023-01-19T13:26:04;10.10;66.00
55828;DHT22;41758;51.992;5.890;2023-01-19T13:29:27;10.10;66.50
55828;DHT22;41758;51.992;5.890;2023-01-19T13:31:36;10.30;66.50
55828;DHT22;41758;51.992;5.890;2023-01-19T13:34:04;10.20;64.00
55828;DHT22;41758;51.992;5.890;2023-01-19T13:36:44;10.10;63.90
55828;DHT22;41758;51.992;5.890;2023-01-19T13:42:51;10.00;64.10
55828;DHT22;41758;51.992;5.890;2023-01-19T13:45:31;9.80;62.70
55828;DHT22;41758;51.992;5.890;2023-01-19T13:48:10;9.70;63.70
55828;DHT22;41758;51.992;5.890;2023-01-19T13:50:39;9.70;63.50
55828;DHT22;41758;51.992;5.890;2023-01-19T13:53:17;9.70;63.70
55828;DHT22;41758;51.992;5.890;2023-01-19T13:55:47;9.70;63.40
55828;DHT22;41758;51.992;5.890;2023-01-19T13:58:20;9.60;63.40
55828;DHT22;41758;51.992;5.890;2023-01-19T14:00:49;9.60;63.60
55828;DHT22;41758;51.992;5.890;2023-01-19T14:03:20;9.60;63.30
55828;DHT22;41758;51.992;5.890;2023-01-19T14:05:52;9.50;63.10
55828;DHT22;41758;51.992;5.890;2023-01-19T14:08:20;9.50;62.80
55828;DHT22;41758;51.992;5.890;2023-01-19T14:10:59;9.40;63.00
55828;DHT22;41758;51.992;5.890;2023-01-19T14:13:35;9.30;61.90
55828;DHT22;41758;51.992;5.890;2023-01-19T14:16:19;9.30;62.50
55828;DHT22;41758;51.992;5.890;2023-01-19T14:19:11;9.30;62.90
55828;DHT22;41758;51.992;5.890;2023-01-19T14:21:41;9.30;62.80
55828;DHT22;41758;51.992;5.890;2023-01-19T14:24:17;9.20;63.30
55828;DHT22;41758;51.992;5.890;2023-01-19T14:26:53;9.20;61.80
55828;DHT22;41758;51.992;5.890;2023-01-19T14:29:54;9.20;62.20
55828;DHT22;41758;51.992;5.890;2023-01-19T14:32:51;9.10;62.50
55828;DHT22;41758;51.992;5.890;2023-01-19T14:35:23;9.10;62.10
55828;DHT22;41758;51.992;5.890;2023-01-19T14:37:50;9.10;63.10
55828;DHT22;41758;51.992;5.890;2023-01-19T14:40:20;9.00;61.00
55828;DHT22;41758;51.992;5.890;2023-01-19T14:46:26;9.00;61.70
55828;DHT22;41758;51.992;5.890;2023-01-19T14:49:20;8.90;61.60
55828;DHT22;41758;51.992;5.890;2023-01-19T14:55:06;8.90;62.50
55828;DHT22;41758;51.992;5.890;2023-01-19T14:58:20;8.80;62.40
55828;DHT22;41758;51.992;5.890;2023-01-19T15:00:50;8.80;62.30
55828;DHT22;41758;51.992;5.890;2023-01-19T15:03:23;8.80;63.20
55828;DHT22;41758;51.992;5.890;2023-01-19T15:05:49;8.80;63.10
55828;DHT22;41758;51.992;5.890;2023-01-19T15:08:19;8.70;63.90
55828;DHT22;41758;51.992;5.890;2023-01-19T15:11:09;8.60;63.50
55828;DHT22;41758;51.992;5.890;2023-01-19T15:13:36;8.60;63.30
55828;DHT22;41758;51.992;5.890;2023-01-19T15:16:04;8.50;64.00
55828;DHT22;41758;51.992;5.890;2023-01-19T15:18:30;8.50;63.80
55828;DHT22;41758;51.992;5.890;2023-01-19T15:20:56;8.60;63.70
55828;DHT22;41758;51.992;5.890;2023-01-19T15:23:35;8.50;64.10
55828;DHT22;41758;51.992;5.890;2023-01-19T15:26:27;8.50;62.80
55828;DHT22;41758;51.992;5.890;2023-01-19T15:28:54;8.50;62.30
55828;DHT22;41758;51.992;5.890;2023-01-19T15:31:29;8.40;62.70
55828;DHT22;41758;51.992;5.890;2023-01-19T15:34:10;8.50;62.90
55828;DHT22;41758;51.992;5.890;2023-01-19T15:36:43;8.50;63.00
55828;DHT22;41758;51.992;5.890;2023-01-19T15:39:09;8.50;62.70
55828;DHT22;41758;51.992;5.890;2023-01-19T15:41:37;8.50;63.10
55828;DHT22;41758;51.992;5.890;2023-01-19T15:44:04;8.50;63.40
55828;DHT22;41758;51.992;5.890;2023-01-19T15:46:34;8.40;63.00
55828;DHT22;41758;51.992;5.890;2023-01-19T15:49:00;8.40;62.10
55828;DHT22;41758;51.992;5.890;2023-01-19T15:51:27;8.40;62.30
55828;DHT22;41758;51.992;5.890;2023-01-19T15:53:54;8.30;63.00
55828;DHT22;41758;51.992;5.890;2023-01-19T15:56:22;8.30;63.10
55828;DHT22;41758;51.992;5.890;2023-01-19T15:58:51;8.30;64.70
55828;DHT22;41758;51.992;5.890;2023-01-19T16:01:24;8.30;64.70
55828;DHT22;41758;51.992;5.890;2023-01-19T16:04:01;8.30;65.60
55828;DHT22;41758;51.992;5.890;2023-01-19T16:06:28;8.30;65.50
55828;DHT22;41758;51.992;5.890;2023-01-19T16:08:57;8.20;65.90
55828;DHT22;41758;51.992;5.890;2023-01-19T16:11:27;8.20;66.50
55828;DHT22;41758;51.992;5.890;2023-01-19T16:13:54;8.20;66.60
55828;DHT22;41758;51.992;5.890;2023-01-19T16:16:22;8.20;66.30
55828;DHT22;41758;51.992;5.890;2023-01-19T16:18:51;8.10;66.60
55828;DHT22;41758;51.992;5.890;2023-01-19T16:21:20;8.10;66.90
55828;DHT22;41758;51.992;5.890;2023-01-19T16:23:46;8.10;67.50
55828;DHT22;41758;51.992;5.890;2023-01-19T16:26:26;8.00;67.40
55828;DHT22;41758;51.992;5.890;2023-01-19T16:28:55;8.10;67.60
55828;DHT22;41758;51.992;5.890;2023-01-19T16:31:21;8.00;67.40
55828;DHT22;41758;51.992;5.890;2023-01-19T16:36:57;8.00;67.60
55828;DHT22;41758;51.992;5.890;2023-01-19T16:39:32;7.90;67.30
55828;DHT22;41758;51.992;5.890;2023-01-19T16:41:58;7.80;66.70
55828;DHT22;41758;51.992;5.890;2023-01-19T16:44:24;7.80;67.00
55828;DHT22;41758;51.992;5.890;2023-01-19T16:46:50;7.70;66.90
55828;DHT22;41758;51.992;5.890;2023-01-19T16:49:21;7.60;67.60
55828;DHT22;41758;51.992;5.890;2023-01-19T16:51:47;7.60;68.10
55828;DHT22;41758;51.992;5.890;2023-01-19T16:54:15;7.50;67.60
55828;DHT22;41758;51.992;5.890;2023-01-19T16:56:42;7.50;68.00
55828;DHT22;41758;51.992;5.890;2023-01-19T16:59:13;7.50;68.20
55828;DHT22;41758;51.992;5.890;2023-01-19T17:01:39;7.50;68.20
55828;DHT22;41758;51.992;5.890;2023-01-19T17:04:05;7.40;68.60
55828;DHT22;41758;51.992;5.890;2023-01-19T17:06:31;7.40;68.80
55828;DHT22;41758;51.992;5.890;2023-01-19T17:08:57;7.40;69.10
55828;DHT22;41758;51.992;5.890;2023-01-19T17:11:28;7.40;68.60
55828;DHT22;41758;51.992;5.890;2023-01-19T17:13:57;7.40;68.40
55828;DHT22;41758;51.992;5.890;2023-01-19T17:16:30;7.40;68.00
55828;DHT22;41758;51.992;5.890;2023-01-19T17:19:00;7.40;68.70
55828;DHT22;41758;51.992;5.890;2023-01-19T17:21:31;7.30;68.70
55828;DHT22;41758;51.992;5.890;2023-01-19T17:23:57;7.30;68.50
55828;DHT22;41758;51.992;5.890;2023-01-19T17:26:24;7.30;68.70
55828;DHT22;41758;51.992;5.890;2023-01-19T17:29:07;7.30;68.70
55828;DHT22;41758;51.992;5.890;2023-01-19T17:31:36;7.30;68.50
55828;DHT22;41758;51.992;5.890;2023-01-19T17:34:19;7.30;68.40
55828;DHT22;41758;51.992;5.890;2023-01-19T17:36:53;7.30;68.70